sensor_id;sensor_type;location;lat;lon;timestamp;temperature;humidity
20141;DHT22;10231;47.702;9.826;2023-02-15T00:00:00;0.10;99.90
20141;DHT22;10231;47.702;9.826;2023-02-15T00:02:26;0.10;99.90
20141;DHT22;10231;47.702;9.826;2023-02-15T00:04:52;0.20;99.90
20141;DHT22;10231;47.702;9.826;2023-02-15T00:07:19;0.10;99.90
20141;DHT22;10231;47.702;9.826;2023-02-15T00:09:45;0.00;99.90
20141;DHT22;10231;47.702;9.826;2023-02-15T00:12:11;0.10;99.90
20141;DHT22;10231;47.702;9.826;2023-02-15T00:14:37;0.20;99.90
20141;DHT22;10231;47.702;9.826;2023-02-15T00:17:03;0.20;99.90
20141;DHT22;10231;47.702;9.826;2023-02-15T00:19:28;0.00;99.90
20141;DHT22;10231;47.702;9.826;2023-02-15T00:21:54;0.00;99.90
20141;DHT22;10231;47.702;9.826;2023-02-15T00:24:20;0.00;99.90
20141;DHT22;10231;47.702;9.826;2023-02-15T00:26:46;0.00;99.90
20141;DHT22;10231;47.702;9.826;2023-02-15T00:29:13;0.00;99.90
20141;DHT22;10231;47.702;9.826;2023-02-15T00:31:39;0.00;99.90
20141;DHT22;10231;47.702;9.826;2023-02-15T00:34:09;0.00;99.90
20141;DHT22;10231;47.702;9.826;2023-02-15T00:36:35;-0.10;99.90
20141;DHT22;10231;47.702;9.826;2023-02-15T00:39:01;-0.10;99.90
20141;DHT22;10231;47.702;9.826;2023-02-15T00:41:27;-0.10;99.90
20141;DHT22;10231;47.702;9.826;2023-02-15T00:43:52;-0.10;99.90
20141;DHT22;10231;47.702;9.826;2023-02-15T00:46:18;-0.10;99.90
20141;DHT22;10231;47.702;9.826;2023-02-15T00:48:43;-0.10;99.90
20141;DHT22;10231;47.702;9.826;2023-02-15T00:51:09;-0.10;99.90
20141;DHT22;10231;47.702;9.826;2023-02-15T00:53:34;-0.20;99.90
20141;DHT22;10231;47.702;9.826;2023-02-15T00:56:00;-0.20;99.90
20141;DHT22;10231;47.702;9.826;2023-02-15T00:58:25;-0.20;99.90
20141;DHT22;10231;47.702;9.826;2023-02-15T01:00:51;-0.20;99.90
20141;DHT22;10231;47.702;9.826;2023-02-15T01:03:18;-0.30;99.90
20141;DHT22;10231;47.702;9.826;2023-02-15T01:05:45;-0.20;99.90
20141;DHT22;10231;47.702;9.826;2023-02-15T01:08:11;-0.30;99.90
20141;DHT22;10231;47.702;9.826;2023-02-15T01:10:37;-0.40;99.90
20141;DHT22;10231;47.702;9.826;2023-02-15T01:13:03;-0.40;99.90
20141;DHT22;10231;47.702;9.826;2023-02-15T01:15:29;-0.50;99.90
20141;DHT22;10231;47.702;9.826;2023-02-15T01:17:55;-0.50;99.90
20141;DHT22;10231;47.702;9.826;2023-02-15T01:20:23;-0.50;99.90
20141;DHT22;10231;47.702;9.826;2023-02-15T01:22:49;-0.60;99.90
20141;DHT22;10231;47.702;9.826;2023-02-15T01:25:19;-0.60;99.90
20141;DHT22;10231;47.702;9.826;2023-02-15T01:27:45;-0.50;99.90
20141;DHT22;10231;47.702;9.826;2023-02-15T01:30:11;-0.50;99.90
20141;DHT22;10231;47.702;9.826;2023-02-15T01:32:37;-0.40;99.90
20141;DHT22;10231;47.702;9.826;2023-02-15T01:35:03;-0.40;99.90
20141;DHT22;10231;47.702;9.826;2023-02-15T01:37:30;-0.40;99.90
20141;DHT22;10231;47.702;9.826;2023-02-15T01:39:57;-0.30;99.90
20141;DHT22;10231;47.702;9.826;2023-02-15T01:42:23;-0.30;99.90
20141;DHT22;10231;47.702;9.826;2023-02-15T01:44:56;-0.30;99.90
20141;DHT22;10231;47.702;9.826;2023-02-15T01:47:44;-0.40;99.90
20141;DHT22;10231;47.702;9.826;2023-02-15T01:50:21;-0.50;99.90
20141;DHT22;10231;47.702;9.826;2023-02-15T01:55:32;-0.30;99.90
20141;DHT22;10231;47.702;9.826;2023-02-15T01:57:59;-0.30;99.90
20141;DHT22;10231;47.702;9.826;2023-02-15T02:00:26;-0.50;99.90
20141;DHT22;10231;47.702;9.826;2023-02-15T02:02:54;-0.60;99.90
20141;DHT22;10231;47.702;9.826;2023-02-15T02:05:20;-0.50;99.90
20141;DHT22;10231;47.702;9.826;2023-02-15T02:07:46;-0.60;99.90
20141;DHT22;10231;47.702;9.826;2023-02-15T02:10:16;-0.60;99.90
20141;DHT22;10231;47.702;9.826;2023-02-15T02:12:43;-0.60;99.90
20141;DHT22;10231;47.702;9.826;2023-02-15T02:15:10;-0.70;99.90
20141;DHT22;10231;47.702;9.826;2023-02-15T02:17:42;-0.50;99.90
20141;DHT22;10231;47.702;9.826;2023-02-15T02:39:55;-0.90;99.90
20141;DHT22;10231;47.702;9.826;2023-02-15T02:45:07;-1.10;99.90
20141;DHT22;10231;47.702;9.826;2023-02-15T02:48:00;-0.90;99.90
20141;DHT22;10231;47.702;9.826;2023-02-15T02:50:30;-1.00;99.90
20141;DHT22;10231;47.702;9.826;2023-02-15T02:52:57;-1.10;99.90
20141;DHT22;10231;47.702;9.826;2023-02-15T02:58:16;-1.10;99.90
20141;DHT22;10231;47.702;9.826;2023-02-15T03:00:49;-1.00;99.90
20141;DHT22;10231;47.702;9.826;2023-02-15T03:03:27;-1.00;99.90
20141;DHT22;10231;47.702;9.826;2023-02-15T03:05:58;-1.10;99.90
20141;DHT22;10231;47.702;9.826;2023-02-15T03:08:28;-1.10;99.90
20141;DHT22;10231;47.702;9.826;2023-02-15T03:10:58;-1.10;99.90
20141;DHT22;10231;47.702;9.826;2023-02-15T03:13:24;-1.00;99.90
20141;DHT22;10231;47.702;9.826;2023-02-15T03:15:51;-1.10;99.90
20141;DHT22;10231;47.702;9.826;2023-02-15T03:18:39;-1.20;99.90
20141;DHT22;10231;47.702;9.826;2023-02-15T03:21:07;-1.30;99.90
20141;DHT22;10231;47.702;9.826;2023-02-15T03:23:36;-1.20;99.90
20141;DHT22;10231;47.702;9.826;2023-02-15T03:26:05;-1.20;99.90
20141;DHT22;10231;47.702;9.826;2023-02-15T03:28:36;-1.10;99.90
20141;DHT22;10231;47.702;9.826;2023-02-15T03:31:07;-1.20;99.90
20141;DHT22;10231;47.702;9.826;2023-02-15T03:33:35;-1.20;99.90
20141;DHT22;10231;47.702;9.826;2023-02-15T03:36:26;-1.10;99.90
20141;DHT22;10231;47.702;9.826;2023-02-15T03:42:24;-1.10;99.90
20141;DHT22;10231;47.702;9.826;2023-02-15T03:44:29;-0.90;99.90
20141;DHT22;10231;47.702;9.826;2023-02-15T03:47:00;-0.90;99.90
20141;DHT22;10231;47.702;9.826;2023-02-15T03:52:03;-1.00;99.90
20141;DHT22;10231;47.702;9.826;2023-02-15T03:54:32;-1.00;99.90
20141;DHT22;10231;47.702;9.826;2023-02-15T03:57:22;-1.00;99.90
20141;DHT22;10231;47.702;9.826;2023-02-15T04:00:23;-1.00;99.90
20141;DHT22;10231;47.702;9.826;2023-02-15T04:03:29;-1.00;99.90
20141;DHT22;10231;47.702;9.826;2023-02-15T04:05:57;-0.90;99.90
20141;DHT22;10231;47.702;9.826;2023-02-15T04:08:23;-0.90;99.90
20141;DHT22;10231;47.702;9.826;2023-02-15T04:11:08;-1.00;99.90
20141;DHT22;10231;47.702;9.826;2023-02-15T04:13:34;-1.00;99.90
20141;DHT22;10231;47.702;9.826;2023-02-15T04:15:59;-1.00;99.90
20141;DHT22;10231;47.702;9.826;2023-02-15T04:18:29;-1.00;99.90
20141;DHT22;10231;47.702;9.826;2023-02-15T04:21:13;-0.90;99.90
20141;DHT22;10231;47.702;9.826;2023-02-15T04:23:57;-0.90;99.90
20141;DHT22;10231;47.702;9.826;2023-02-15T04:26:41;-0.80;99.90
20141;DHT22;10231;47.702;9.826;2023-02-15T04:29:06;-0.80;99.90
20141;DHT22;10231;47.702;9.826;2023-02-15T04:31:32;-0.90;99.90
20141;DHT22;10231;47.702;9.826;2023-02-15T04:33:57;-0.90;99.90
20141;DHT22;10231;47.702;9.826;2023-02-15T04:36:23;-0.80;99.90
20141;DHT22;10231;47.702;9.826;2023-02-15T04:38:48;-0.90;99.90
20141;DHT22;10231;47.702;9.826;2023-02-15T04:41:14;-0.90;99.90
20141;DHT22;10231;47.702;9.826;2023-02-15T04:43:39;-0.90;99.90
20141;DHT22;10231;47.702;9.826;2023-02-15T04:46:05;-0.90;99.90
20141;DHT22;10231;47.702;9.826;2023-02-15T04:48:31;-1.00;99.90
20141;DHT22;10231;47.702;9.826;2023-02-15T04:50:56;-0.90;99.90
20141;DHT22;10231;47.702;9.826;2023-02-15T04:53:22;-1.00;99.90
20141;DHT22;10231;47.702;9.826;2023-02-15T04:55:47;-0.90;99.90
20141;DHT22;10231;47.702;9.826;2023-02-15T04:58:13;-0.70;99.90
20141;DHT22;10231;47.702;9.826;2023-02-15T05:00:39;-0.70;99.90
20141;DHT22;10231;47.702;9.826;2023-02-15T05:03:04;-0.70;99.90
20141;DHT22;10231;47.702;9.826;2023-02-15T05:05:30;-0.70;99.90
20141;DHT22;10231;47.702;9.826;2023-02-15T05:07:55;-0.70;99.90
20141;DHT22;10231;47.702;9.826;2023-02-15T05:10:21;-0.80;99.90
20141;DHT22;10231;47.702;9.826;2023-02-15T05:12:47;-0.70;99.90
20141;DHT22;10231;47.702;9.826;2023-02-15T05:15:13;-0.70;99.90
20141;DHT22;10231;47.702;9.826;2023-02-15T05:17:38;-0.70;99.90
20141;DHT22;10231;47.702;9.826;2023-02-15T05:20:04;-0.70;99.90
20141;DHT22;10231;47.702;9.826;2023-02-15T05:22:30;-0.70;99.90
20141;DHT22;10231;47.702;9.826;2023-02-15T05:24:55;-0.70;99.90
20141;DHT22;10231;47.702;9.826;2023-02-15T05:27:39;-0.80;99.90
20141;DHT22;10231;47.702;9.826;2023-02-15T05:30:23;-0.90;99.90
20141;DHT22;10231;47.702;9.826;2023-02-15T05:32:49;-0.80;99.90
20141;DHT22;10231;47.702;9.826;2023-02-15T05:35:16;-0.70;99.90
20141;DHT22;10231;47.702;9.826;2023-02-15T05:37:41;-0.80;99.90
20141;DHT22;10231;47.702;9.826;2023-02-15T05:40:08;-0.80;99.90
20141;DHT22;10231;47.702;9.826;2023-02-15T05:42:33;-0.80;99.90
20141;DHT22;10231;47.702;9.826;2023-02-15T05:44:59;-0.70;99.90
20141;DHT22;10231;47.702;9.826;2023-02-15T05:47:24;-0.80;99.90
20141;DHT22;10231;47.702;9.826;2023-02-15T05:49:50;-0.70;99.90
20141;DHT22;10231;47.702;9.826;2023-02-15T05:52:16;-0.80;99.90
20141;DHT22;10231;47.702;9.826;2023-02-15T05:54:41;-0.90;99.90
20141;DHT22;10231;47.702;9.826;2023-02-15T05:57:07;-0.90;99.90
20141;DHT22;10231;47.702;9.826;2023-02-15T05:59:32;-0.80;99.90
20141;DHT22;10231;47.702;9.826;2023-02-15T06:01:58;-0.90;99.90
20141;DHT22;10231;47.702;9.826;2023-02-15T06:04:23;-0.90;99.90
20141;DHT22;10231;47.702;9.826;2023-02-15T06:06:49;-1.00;99.90
20141;DHT22;10231;47.702;9.826;2023-02-15T06:09:14;-0.90;99.90
20141;DHT22;10231;47.702;9.826;2023-02-15T06:11:40;-0.90;99.90
20141;DHT22;10231;47.702;9.826;2023-02-15T06:14:06;-0.90;99.90
20141;DHT22;10231;47.702;9.826;2023-02-15T06:16:31;-1.00;99.90
20141;DHT22;10231;47.702;9.826;2023-02-15T06:18:57;-1.10;99.90
20141;DHT22;10231;47.702;9.826;2023-02-15T06:21:24;-1.10;99.90
20141;DHT22;10231;47.702;9.826;2023-02-15T06:23:49;-1.00;99.90
20141;DHT22;10231;47.702;9.826;2023-02-15T06:26:15;-1.00;99.90
20141;DHT22;10231;47.702;9.826;2023-02-15T06:28:41;-0.90;99.90
20141;DHT22;10231;47.702;9.826;2023-02-15T06:31:06;-1.00;99.90
20141;DHT22;10231;47.702;9.826;2023-02-15T06:33:32;-1.00;99.90
20141;DHT22;10231;47.702;9.826;2023-02-15T06:35:59;-1.00;99.90
20141;DHT22;10231;47.702;9.826;2023-02-15T06:38:24;-1.00;99.90
20141;DHT22;10231;47.702;9.826;2023-02-15T06:40:50;-0.90;99.90
20141;DHT22;10231;47.702;9.826;2023-02-15T06:43:16;-1.00;99.90
20141;DHT22;10231;47.702;9.826;2023-02-15T06:45:41;-1.00;99.90
20141;DHT22;10231;47.702;9.826;2023-02-15T06:48:07;-1.10;99.90
20141;DHT22;10231;47.702;9.826;2023-02-15T06:50:34;-1.20;99.90
20141;DHT22;10231;47.702;9.826;2023-02-15T06:52:59;-1.10;99.90
20141;DHT22;10231;47.702;9.826;2023-02-15T06:55:25;-1.10;99.90
20141;DHT22;10231;47.702;9.826;2023-02-15T06:57:51;-1.00;99.90
20141;DHT22;10231;47.702;9.826;2023-02-15T07:00:17;-0.90;99.90
20141;DHT22;10231;47.702;9.826;2023-02-15T07:02:43;-0.90;99.90
20141;DHT22;10231;47.702;9.826;2023-02-15T07:05:09;-1.00;99.90
20141;DHT22;10231;47.702;9.826;2023-02-15T07:07:35;-1.00;99.90
20141;DHT22;10231;47.702;9.826;2023-02-15T07:10:01;-1.00;99.90
20141;DHT22;10231;47.702;9.826;2023-02-15T07:12:26;-1.00;99.90
20141;DHT22;10231;47.702;9.826;2023-02-15T07:15:09;-1.00;99.90
20141;DHT22;10231;47.702;9.826;2023-02-15T07:17:35;-1.00;99.90
20141;DHT22;10231;47.702;9.826;2023-02-15T07:20:12;-1.00;99.90
20141;DHT22;10231;47.702;9.826;2023-02-15T07:22:38;-0.90;99.90
20141;DHT22;10231;47.702;9.826;2023-02-15T07:25:05;-1.00;99.90
20141;DHT22;10231;47.702;9.826;2023-02-15T07:27:31;-1.10;99.90
20141;DHT22;10231;47.702;9.826;2023-02-15T07:29:57;-1.30;99.90
20141;DHT22;10231;47.702;9.826;2023-02-15T07:32:22;-1.30;99.90
20141;DHT22;10231;47.702;9.826;2023-02-15T07:34:48;-1.20;99.90
20141;DHT22;10231;47.702;9.826;2023-02-15T07:37:13;-1.10;99.90
20141;DHT22;10231;47.702;9.826;2023-02-15T07:39:39;-1.10;99.90
20141;DHT22;10231;47.702;9.826;2023-02-15T07:42:05;-1.20;99.90
20141;DHT22;10231;47.702;9.826;2023-02-15T07:44:30;-1.10;99.90
20141;DHT22;10231;47.702;9.826;2023-02-15T07:46:56;-1.20;99.90
20141;DHT22;10231;47.702;9.826;2023-02-15T07:49:21;-1.10;99.90
20141;DHT22;10231;47.702;9.826;2023-02-15T07:51:47;-1.00;99.90
20141;DHT22;10231;47.702;9.826;2023-02-15T07:54:12;-1.00;99.90
20141;DHT22;10231;47.702;9.826;2023-02-15T07:56:38;-0.90;99.90
20141;DHT22;10231;47.702;9.826;2023-02-15T07:59:04;-0.80;99.90
20141;DHT22;10231;47.702;9.826;2023-02-15T08:01:36;-0.80;99.90
20141;DHT22;10231;47.702;9.826;2023-02-15T08:04:03;-0.90;99.90
20141;DHT22;10231;47.702;9.826;2023-02-15T08:06:33;-0.90;99.90
20141;DHT22;10231;47.702;9.826;2023-02-15T08:08:59;-0.90;99.90
20141;DHT22;10231;47.702;9.826;2023-02-15T08:11:28;-0.90;99.90
20141;DHT22;10231;47.702;9.826;2023-02-15T08:14:10;-0.80;99.90
20141;DHT22;10231;47.702;9.826;2023-02-15T08:16:54;-0.90;99.90
20141;DHT22;10231;47.702;9.826;2023-02-15T08:19:26;-0.90;99.90
20141;DHT22;10231;47.702;9.826;2023-02-15T08:24:24;-0.80;99.90
20141;DHT22;10231;47.702;9.826;2023-02-15T08:26:51;-0.80;99.90
20141;DHT22;10231;47.702;9.826;2023-02-15T08:29:19;-0.80;99.90
20141;DHT22;10231;47.702;9.826;2023-02-15T08:31:46;-0.70;99.90
20141;DHT22;10231;47.702;9.826;2023-02-15T08:34:15;-0.60;99.90
20141;DHT22;10231;47.702;9.826;2023-02-15T08:36:41;-0.60;99.90
20141;DHT22;10231;47.702;9.826;2023-02-15T08:39:07;-0.40;99.90
20141;DHT22;10231;47.702;9.826;2023-02-15T08:41:37;-0.30;99.90
20141;DHT22;10231;47.702;9.826;2023-02-15T08:44:08;-0.20;99.90
20141;DHT22;10231;47.702;9.826;2023-02-15T08:46:36;-0.20;99.90
20141;DHT22;10231;47.702;9.826;2023-02-15T08:49:02;-0.10;99.90
20141;DHT22;10231;47.702;9.826;2023-02-15T08:51:30;-0.10;99.90
20141;DHT22;10231;47.702;9.826;2023-02-15T08:53:59;0.00;99.90
20141;DHT22;10231;47.702;9.826;2023-02-15T08:56:27;0.10;99.90
20141;DHT22;10231;47.702;9.826;2023-02-15T08:58:54;0.20;99.90
20141;DHT22;10231;47.702;9.826;2023-02-15T09:01:23;0.30;99.90
20141;DHT22;10231;47.702;9.826;2023-02-15T09:03:54;0.30;99.90
20141;DHT22;10231;47.702;9.826;2023-02-15T09:06:21;0.40;99.90
20141;DHT22;10231;47.702;9.826;2023-02-15T09:08:51;0.40;99.90
20141;DHT22;10231;47.702;9.826;2023-02-15T09:11:19;0.40;99.90
20141;DHT22;10231;47.702;9.826;2023-02-15T09:16:19;0.60;99.90
20141;DHT22;10231;47.702;9.826;2023-02-15T09:18:45;0.70;99.90
20141;DHT22;10231;47.702;9.826;2023-02-15T09:21:16;0.70;99.90
20141;DHT22;10231;47.702;9.826;2023-02-15T09:23:44;0.70;99.90
20141;DHT22;10231;47.702;9.826;2023-02-15T09:26:12;0.80;99.90
20141;DHT22;10231;47.702;9.826;2023-02-15T09:28:38;0.90;99.90
20141;DHT22;10231;47.702;9.826;2023-02-15T09:31:10;0.90;99.90
20141;DHT22;10231;47.702;9.826;2023-02-15T09:33:36;0.90;99.90
20141;DHT22;10231;47.702;9.826;2023-02-15T09:36:04;1.00;99.90
20141;DHT22;10231;47.702;9.826;2023-02-15T09:38:29;1.10;99.90
20141;DHT22;10231;47.702;9.826;2023-02-15T09:43:47;1.20;99.90
20141;DHT22;10231;47.702;9.826;2023-02-15T09:46:27;1.30;99.90
20141;DHT22;10231;47.702;9.826;2023-02-15T09:49:04;1.40;99.90
20141;DHT22;10231;47.702;9.826;2023-02-15T09:51:45;1.50;99.90
20141;DHT22;10231;47.702;9.826;2023-02-15T09:57:00;1.60;99.90
20141;DHT22;10231;47.702;9.826;2023-02-15T09:59:44;1.70;99.90
20141;DHT22;10231;47.702;9.826;2023-02-15T10:13:21;2.00;99.90
20141;DHT22;10231;47.702;9.826;2023-02-15T10:19:08;2.30;99.90
20141;DHT22;10231;47.702;9.826;2023-02-15T10:21:40;2.40;99.90
20141;DHT22;10231;47.702;9.826;2023-02-15T10:27:07;2.70;99.90
20141;DHT22;10231;47.702;9.826;2023-02-15T10:29:37;2.70;99.90
20141;DHT22;10231;47.702;9.826;2023-02-15T10:34:39;2.80;99.90
20141;DHT22;10231;47.702;9.826;2023-02-15T10:40:39;3.00;99.90
20141;DHT22;10231;47.702;9.826;2023-02-15T10:49:00;3.30;99.90
20141;DHT22;10231;47.702;9.826;2023-02-15T10:51:53;3.40;99.90
20141;DHT22;10231;47.702;9.826;2023-02-15T10:54:34;3.50;99.90
20141;DHT22;10231;47.702;9.826;2023-02-15T11:02:52;3.90;99.90
20141;DHT22;10231;47.702;9.826;2023-02-15T11:08:16;4.10;99.90
20141;DHT22;10231;47.702;9.826;2023-02-15T11:10:51;4.10;99.90
20141;DHT22;10231;47.702;9.826;2023-02-15T11:13:20;4.20;99.90
20141;DHT22;10231;47.702;9.826;2023-02-15T11:18:41;4.40;99.90
20141;DHT22;10231;47.702;9.826;2023-02-15T11:21:26;4.50;99.90
20141;DHT22;10231;47.702;9.826;2023-02-15T11:23:52;4.70;99.90
20141;DHT22;10231;47.702;9.826;2023-02-15T11:26:32;4.80;99.90
20141;DHT22;10231;47.702;9.826;2023-02-15T11:31:47;5.00;99.90
20141;DHT22;10231;47.702;9.826;2023-02-15T11:34:25;5.20;99.90
20141;DHT22;10231;47.702;9.826;2023-02-15T11:36:54;5.20;99.90
20141;DHT22;10231;47.702;9.826;2023-02-15T11:39:21;5.30;99.90
20141;DHT22;10231;47.702;9.826;2023-02-15T11:41:50;5.40;99.90
20141;DHT22;10231;47.702;9.826;2023-02-15T11:44:32;5.50;99.90
20141;DHT22;10231;47.702;9.826;2023-02-15T11:47:00;5.60;99.90
20141;DHT22;10231;47.702;9.826;2023-02-15T11:49:32;5.70;99.90
20141;DHT22;10231;47.702;9.826;2023-02-15T11:52:00;5.80;99.90
20141;DHT22;10231;47.702;9.826;2023-02-15T11:54:39;5.80;99.90
20141;DHT22;10231;47.702;9.826;2023-02-15T11:57:25;5.80;99.90
20141;DHT22;10231;47.702;9.826;2023-02-15T12:00:16;5.80;99.90
20141;DHT22;10231;47.702;9.826;2023-02-15T12:02:48;6.00;99.90
20141;DHT22;10231;47.702;9.826;2023-02-15T12:05:18;6.20;99.90
20141;DHT22;10231;47.702;9.826;2023-02-15T12:07:49;6.30;99.90
20141;DHT22;10231;47.702;9.826;2023-02-15T12:10:46;6.40;99.90
20141;DHT22;10231;47.702;9.826;2023-02-15T12:13:18;6.40;99.90
20141;DHT22;10231;47.702;9.826;2023-02-15T12:15:46;6.50;99.90
20141;DHT22;10231;47.702;9.826;2023-02-15T12:18:38;6.70;99.90
20141;DHT22;10231;47.702;9.826;2023-02-15T12:21:26;6.80;99.90
20141;DHT22;10231;47.702;9.826;2023-02-15T12:24:16;6.90;99.90
20141;DHT22;10231;47.702;9.826;2023-02-15T12:26:43;7.00;99.90
20141;DHT22;10231;47.702;9.826;2023-02-15T12:29:20;7.20;99.90
20141;DHT22;10231;47.702;9.826;2023-02-15T12:31:49;7.20;99.90
20141;DHT22;10231;47.702;9.826;2023-02-15T12:34:42;7.20;99.90
20141;DHT22;10231;47.702;9.826;2023-02-15T12:37:17;7.30;99.90
20141;DHT22;10231;47.702;9.826;2023-02-15T12:40:10;7.50;99.90
20141;DHT22;10231;47.702;9.826;2023-02-15T12:42:44;7.50;99.90
20141;DHT22;10231;47.702;9.826;2023-02-15T12:45:42;7.60;99.90
20141;DHT22;10231;47.702;9.826;2023-02-15T12:48:20;7.70;99.90
20141;DHT22;10231;47.702;9.826;2023-02-15T12:50:50;7.70;99.90
20141;DHT22;10231;47.702;9.826;2023-02-15T12:53:22;7.80;99.90
20141;DHT22;10231;47.702;9.826;2023-02-15T12:55:59;7.90;99.90
20141;DHT22;10231;47.702;9.826;2023-02-15T12:58:27;8.00;99.90
20141;DHT22;10231;47.702;9.826;2023-02-15T13:01:14;8.10;99.90
20141;DHT22;10231;47.702;9.826;2023-02-15T13:04:00;8.10;99.90
20141;DHT22;10231;47.702;9.826;2023-02-15T13:06:27;8.10;99.90
20141;DHT22;10231;47.702;9.826;2023-02-15T13:08:56;8.20;99.90
20141;DHT22;10231;47.702;9.826;2023-02-15T13:11:30;8.30;99.90
20141;DHT22;10231;47.702;9.826;2023-02-15T13:14:28;8.30;99.90
20141;DHT22;10231;47.702;9.826;2023-02-15T13:16:58;8.30;99.90
20141;DHT22;10231;47.702;9.826;2023-02-15T13:19:45;8.40;99.90
20141;DHT22;10231;47.702;9.826;2023-02-15T13:22:20;8.40;99.90
20141;DHT22;10231;47.702;9.826;2023-02-15T13:24:50;8.50;99.90
20141;DHT22;10231;47.702;9.826;2023-02-15T13:27:20;8.60;99.90
20141;DHT22;10231;47.702;9.826;2023-02-15T13:30:26;8.70;99.90
20141;DHT22;10231;47.702;9.826;2023-02-15T13:32:56;9.00;99.90
20141;DHT22;10231;47.702;9.826;2023-02-15T13:35:26;9.10;99.90
20141;DHT22;10231;47.702;9.826;2023-02-15T13:38:16;9.20;99.90
20141;DHT22;10231;47.702;9.826;2023-02-15T13:49:11;10.00;99.90
20141;DHT22;10231;47.702;9.826;2023-02-15T13:57:49;10.80;99.90
20141;DHT22;10231;47.702;9.826;2023-02-15T14:03:14;11.40;99.90
20141;DHT22;10231;47.702;9.826;2023-02-15T14:06:10;11.70;99.90
20141;DHT22;10231;47.702;9.826;2023-02-15T14:19:46;13.30;99.90
20141;DHT22;10231;47.702;9.826;2023-02-15T14:22:42;13.60;99.90
20141;DHT22;10231;47.702;9.826;2023-02-15T14:25:20;13.90;99.90
20141;DHT22;10231;47.702;9.826;2023-02-15T14:28:10;14.20;99.90
20141;DHT22;10231;47.702;9.826;2023-02-15T14:30:39;14.30;99.90
20141;DHT22;10231;47.702;9.826;2023-02-15T14:35:47;14.50;99.90
20141;DHT22;10231;47.702;9.826;2023-02-15T14:38:39;14.80;99.90
20141;DHT22;10231;47.702;9.826;2023-02-15T14:41:17;14.90;98.90
20141;DHT22;10231;47.702;9.826;2023-02-15T14:44:13;14.90;98.70
20141;DHT22;10231;47.702;9.826;2023-02-15T14:47:04;14.90;98.50
20141;DHT22;10231;47.702;9.826;2023-02-15T14:49:33;15.00;97.80
20141;DHT22;10231;47.702;9.826;2023-02-15T14:52:11;15.60;98.90
20141;DHT22;10231;47.702;9.826;2023-02-15T15:02:27;15.20;99.60
20141;DHT22;10231;47.702;9.826;2023-02-15T15:05:07;14.20;99.90
20141;DHT22;10231;47.702;9.826;2023-02-15T15:07:57;13.30;99.90
20141;DHT22;10231;47.702;9.826;2023-02-15T15:10:33;12.60;99.90
20141;DHT22;10231;47.702;9.826;2023-02-15T15:16:01;11.60;99.90
20141;DHT22;10231;47.702;9.826;2023-02-15T15:18:49;11.30;99.90
20141;DHT22;10231;47.702;9.826;2023-02-15T15:41:02;9.60;99.90
20141;DHT22;10231;47.702;9.826;2023-02-15T15:43:57;9.50;99.90
20141;DHT22;10231;47.702;9.826;2023-02-15T15:49:36;9.20;99.90
20141;DHT22;10231;47.702;9.826;2023-02-15T15:52:16;9.00;99.90
20141;DHT22;10231;47.702;9.826;2023-02-15T15:54:43;9.10;99.90
20141;DHT22;10231;47.702;9.826;2023-02-15T15:57:21;9.00;99.90
20141;DHT22;10231;47.702;9.826;2023-02-15T15:59:49;9.00;99.90
20141;DHT22;10231;47.702;9.826;2023-02-15T16:02:16;8.90;99.90
20141;DHT22;10231;47.702;9.826;2023-02-15T16:04:43;9.40;99.90
20141;DHT22;10231;47.702;9.826;2023-02-15T16:09:55;12.30;99.90
20141;DHT22;10231;47.702;9.826;2023-02-15T16:12:21;13.50;99.90
20141;DHT22;10231;47.702;9.826;2023-02-15T16:14:47;14.40;99.90
20141;DHT22;10231;47.702;9.826;2023-02-15T16:17:34;14.80;99.90
20141;DHT22;10231;47.702;9.826;2023-02-15T16:23:48;14.40;99.90
20141;DHT22;10231;47.702;9.826;2023-02-15T16:26:30;14.00;99.90
20141;DHT22;10231;47.702;9.826;2023-02-15T16:28:58;13.20;99.90
20141;DHT22;10231;47.702;9.826;2023-02-15T16:31:24;12.20;99.90
20141;DHT22;10231;47.702;9.826;2023-02-15T16:33:53;11.20;99.90
20141;DHT22;10231;47.702;9.826;2023-02-15T16:36:22;10.50;99.90
20141;DHT22;10231;47.702;9.826;2023-02-15T16:41:28;9.40;99.90
20141;DHT22;10231;47.702;9.826;2023-02-15T16:43:58;8.90;99.90
20141;DHT22;10231;47.702;9.826;2023-02-15T16:46:47;8.60;99.90
20141;DHT22;10231;47.702;9.826;2023-02-15T16:49:17;8.20;99.90
20141;DHT22;10231;47.702;9.826;2023-02-15T16:51:45;8.20;99.90
20141;DHT22;10231;47.702;9.826;2023-02-15T16:54:21;8.00;99.90
20141;DHT22;10231;47.702;9.826;2023-02-15T16:56:47;7.90;99.90
20141;DHT22;10231;47.702;9.826;2023-02-15T17:00:34;7.80;99.90
20141;DHT22;10231;47.702;9.826;2023-02-15T17:02:32;7.70;99.90
20141;DHT22;10231;47.702;9.826;2023-02-15T17:07:40;7.20;99.90
20141;DHT22;10231;47.702;9.826;2023-02-15T17:12:55;7.00;99.90
20141;DHT22;10231;47.702;9.826;2023-02-15T17:18:39;6.80;99.90
20141;DHT22;10231;47.702;9.826;2023-02-15T17:20:46;6.80;99.90
20141;DHT22;10231;47.702;9.826;2023-02-15T17:23:32;6.70;99.90
20141;DHT22;10231;47.702;9.826;2023-02-15T17:26:00;6.60;99.90
20141;DHT22;10231;47.702;9.826;2023-02-15T17:28:29;6.50;99.90
20141;DHT22;10231;47.702;9.826;2023-02-15T17:30:56;6.50;99.90
20141;DHT22;10231;47.702;9.826;2023-02-15T17:36:23;6.30;99.90
20141;DHT22;10231;47.702;9.826;2023-02-15T17:39:00;6.30;99.90
20141;DHT22;10231;47.702;9.826;2023-02-15T17:41:28;6.20;99.90
20141;DHT22;10231;47.702;9.826;2023-02-15T17:43:54;6.10;99.90
20141;DHT22;10231;47.702;9.826;2023-02-15T17:46:20;5.90;99.90
20141;DHT22;10231;47.702;9.826;2023-02-15T17:48:50;5.90;99.90
20141;DHT22;10231;47.702;9.826;2023-02-15T17:51:18;5.70;99.90
20141;DHT22;10231;47.702;9.826;2023-02-15T17:53:44;5.60;99.90
20141;DHT22;10231;47.702;9.826;2023-02-15T17:56:30;5.60;99.90
20141;DHT22;10231;47.702;9.826;2023-02-15T17:58:56;5.50;99.90
20141;DHT22;10231;47.702;9.826;2023-02-15T18:01:22;5.50;99.90
20141;DHT22;10231;47.702;9.826;2023-02-15T18:04:13;5.40;99.90
20141;DHT22;10231;47.702;9.826;2023-02-15T18:06:58;5.40;99.90
20141;DHT22;10231;47.702;9.826;2023-02-15T18:09:42;5.30;99.90
20141;DHT22;10231;47.702;9.826;2023-02-15T18:12:29;5.30;99.90
20141;DHT22;10231;47.702;9.826;2023-02-15T18:14:55;5.20;99.90
20141;DHT22;10231;47.702;9.826;2023-02-15T18:17:35;5.10;99.90
20141;DHT22;10231;47.702;9.826;2023-02-15T18:20:03;5.00;99.90
20141;DHT22;10231;47.702;9.826;2023-02-15T18:22:30;5.00;99.90
20141;DHT22;10231;47.702;9.826;2023-02-15T18:24:56;4.90;99.90
20141;DHT22;10231;47.702;9.826;2023-02-15T18:27:22;4.80;99.90
20141;DHT22;10231;47.702;9.826;2023-02-15T18:29:47;4.70;99.90
20141;DHT22;10231;47.702;9.826;2023-02-15T18:32:34;4.70;99.90
20141;DHT22;10231;47.702;9.826;2023-02-15T18:35:01;4.70;99.90
20141;DHT22;10231;47.702;9.826;2023-02-15T18:37:30;4.60;99.90
20141;DHT22;10231;47.702;9.826;2023-02-15T18:40:01;4.60;99.90
20141;DHT22;10231;47.702;9.826;2023-02-15T18:42:31;4.50;99.90
20141;DHT22;10231;47.702;9.826;2023-02-15T18:45:00;4.40;99.90
20141;DHT22;10231;47.702;9.826;2023-02-15T18:47:27;4.40;99.90
20141;DHT22;10231;47.702;9.826;2023-02-15T18:49:53;4.30;99.90
20141;DHT22;10231;47.702;9.826;2023-02-15T18:52:21;4.20;99.90
20141;DHT22;10231;47.702;9.826;2023-02-15T18:54:51;4.10;99.90